Kountze, Texas
Current Conditions -  °F | °C
As of 5:15 AM on Saturday 20 Dec 2014 (Local Time) from KBMT Reporting Station
Overcast Overcast  
Wind Chill: 43°   Ceiling: 500
Heat Index: 49°   Visibility: 10mi
Dew Point: 47°   Wind: 13mph
Humidity: 96%   Direction: 10°N
Pressure: 30.14"   Gusts: NA
Location:  30.37°N, 94.31°W
Report Text: KBMT 201115Z AUTO 01011KT 10SM OVC005 09/09 A3014 RMK AO2 T00920086
Loading
Personal Weather Stations






























Interactive Weather Map New forecast layout! Learn more

10-Day Weather Forecast

Advertisements
Track Severe Weather on mobile